Flight Track Log - Related Links

Times and Time Zones

All times are in EDT time to prevent confusion due to time zone crossing. See the N1455R flight status page for this flight to view local times or setup timezone preferences in your user account.

Time Position Orientation Groundspeed Altitude Reporting Facility
EDT Latitude Longitude Course Direction KTS MPH feet Rate Location/Type
Sat 11:39:45 AM 41.6678 -70.9728 270° West 75 86 700  Level Boston Center
Sat 11:40:59 AM 41.6661 -71.0172 267° West 94 108 1,600 639 Climbing Boston Center
Sat 11:41:47 AM 41.6622 -71.0453 259° West 105 121 2,000 606 Climbing Boston Center
Sat 11:42:48 AM 41.6669 -71.0894 278° West 110 127 2,700 590 Climbing Boston Center
Sat 11:43:49 AM 41.6758 -71.1283 287° West 109 125 3,200 541 Climbing Boston Center
Sat 11:44:50 AM 41.6806 -71.1642 280° West 106 122 3,800 491 Climbing Boston Center
Sat 11:45:00 AM 41.7000 -71.2093 270° West  Level FlightAware Approximate
Sat 11:45:39 AM 41.6869 -71.1947 286° West 107 123 4,100  Level Boston Center
Sat 11:46:58 AM 41.6981 -71.2611 283° West 126 145 4,100  Level Boston Center
Sat 11:47:59 AM 41.7050 -71.3056 282° West 126 145 4,100  Level Boston Center
Sat 11:49:00 AM 41.7094 -71.3500 278° West 127 146 4,100 281 Level Boston Center
Sat 11:50:07 AM 41.7183 -71.4028 283° West 123 142 4,700 563 Climbing Boston Center
Sat 11:51:08 AM 41.7228 -71.4500 277° West 118 136 5,300 563 Climbing Boston Center
Sat 11:52:15 AM 41.7192 -71.4861 262° West 103 119 5,900 595 Climbing Boston Center
Sat 11:53:09 AM 41.7194 -71.5222 271° West 103 119 6,500 626 Climbing Boston Center
Sat 11:54:10 AM 41.7156 -71.5614 262° West 106 122 7,100 621 Climbing Boston Center
Sat 11:55:05 AM 41.7117 -71.6058 263° West 123 142 7,700 517 Climbing Boston Center
Sat 11:56:06 AM 41.7078 -71.6503 263° West 116 133 8,100 155 Climbing Boston Center
Sat 11:57:01 AM 41.7039 -71.6978 264° West 136 157 8,000 -52 Descending Boston Center
Sat 11:58:02 AM 41.7000 -71.7478 264° West 134 154 8,000 -52 Level Boston Center
Sat 11:58:57 AM 41.6961 -71.7922 263° West 135 155 7,900  Descending Boston Center
Sat 11:59:57 AM 41.6944 -71.8450 268° West 134 154 8,000 52 Climbing Boston Center
Sat 12:00:52 PM 41.6883 -71.8869 259° West 132 152 8,000  Level Boston Center
Sat 12:01:53 PM 41.6864 -71.9369 267° West 127 146 8,000  Level Boston Center
Sat 12:02:40 PM 41.6847 -71.9731 266° West 127 146 8,000  Level Boston Center
Sat 12:03:53 PM 41.6786 -72.0342 262° West 127 146 8,000  Level Boston Center
Sat 12:04:54 PM 41.6767 -72.0817 267° West 131 151 8,000  Level Boston Center
Sat 12:05:55 PM 41.6725 -72.1289 263° West 129 148 8,000  Level Boston Center
Sat 12:06:56 PM 41.6706 -72.1761 267° West 128 147 8,000  Level Boston Center
Sat 12:07:51 PM 41.6583 -72.2178 249° West 132 152 8,000  Level Boston Center
Sat 12:08:52 PM 41.6458 -72.2650 251° West 134 154 8,000  Level Boston Center
Sat 12:09:53 PM 41.6333 -72.3094 249° West 132 152 8,000  Level Boston Center
Sat 12:10:54 PM 41.6208 -72.3594 252° West 132 152 8,000  Level Boston Center
Sat 12:11:57 PM 41.6064 -72.4039 247° West 129 148 8,000  Level Boston Center
Sat 12:12:56 PM 41.5958 -72.4483 252° West 127 146 8,000  Level Boston Center
Sat 12:13:50 PM 41.5856 -72.4900 252° West 128 147 8,000 -52 Level Boston Center
Sat 12:14:51 PM 41.5731 -72.5344 249° West 129 148 7,900 -295 Descending Boston Center
Sat 12:15:52 PM 41.5606 -72.5844 252° West 144 166 7,400 -492 Descending Boston Center
Sat 12:16:53 PM 41.5458 -72.6342 248° West 148 170 6,900 -297 Descending Boston Center
Sat 12:19:00 PM 41.5020 -72.6891 223° Southwest  Level FlightAware Approximate
Sat 12:20:15 PM 41.5000 -72.8000 223° Southwest 139 160 6,100  Level New York TRACON
Sat 12:21:15 PM 41.4833 -72.8500 246° West 135 155 6,100  Level New York TRACON
Sat 12:22:15 PM 41.4667 -72.9000 246° West 135 155 6,100  Level New York TRACON
Sat 12:23:15 PM 41.4667 -72.9333 270° West 132 152 6,100  Level New York TRACON
Sat 12:24:15 PM 41.4500 -72.9833 246° West 132 152 6,100  Level New York TRACON
Sat 12:25:15 PM 41.4333 -73.0333 246° West 133 153 6,100  Level New York TRACON
Sat 12:26:15 PM 41.4167 -73.0833 246° West 132 152 6,100  Level New York TRACON
Sat 12:27:15 PM 41.4167 -73.1167 270° West 131 151 6,100  Level New York TRACON
Sat 12:28:15 PM 41.4000 -73.1667 246° West 132 152 6,100  Level New York TRACON
Sat 12:30:15 PM 41.3667 -73.2667 246° West 131 151 6,100  Level New York TRACON
Sat 12:31:15 PM 41.3500 -73.3000 236° Southwest 135 155 6,100  Level New York TRACON
Sat 12:32:15 PM 41.3500 -73.3500 270° West 137 158 6,100  Level New York TRACON
Sat 12:33:15 PM 41.3333 -73.4000 246° West 135 155 6,100  Level New York TRACON
Sat 12:34:15 PM 41.3167 -73.4500 246° West 134 154 6,100  Level New York TRACON
Sat 12:35:15 PM 41.3000 -73.4833 236° Southwest 133 153 6,100  Level New York TRACON
Sat 12:36:15 PM 41.3000 -73.5333 270° West 136 157 6,100  Level New York TRACON
Sat 12:37:15 PM 41.2833 -73.5833 246° West 134 154 6,100 -249 Level New York TRACON
Sat 12:39:00 PM 41.2739 -73.6692 262° West  Level FlightAware Approximate
Sat 12:44:16 PM 41.2500 -73.9500 262° West 140 161 4,100  Level New York TRACON
Sat 12:45:16 PM 41.2333 -74.0000 246° West 126 145 4,100  Level New York TRACON
Sat 12:46:00 PM 41.2333 -74.0113 270° West  Level FlightAware Approximate
Sat 12:47:00 PM 41.2333 -74.0609 270° West  Level FlightAware Approximate
Sat 12:47:16 PM 41.2333 -74.1000 270° West 142 163 4,100  Level New York TRACON
Sat 12:48:00 PM 41.2290 -74.1101 262° West  Level FlightAware Approximate
Sat 12:49:00 PM 41.2241 -74.1592 262° West  Level FlightAware Approximate
Sat 12:49:16 PM 41.1833 -74.1500 217° Southwest 124 143 4,100  Level New York TRACON
Sat 12:50:16 PM 41.1500 -74.1667 201° Southwest 138 159 3,600 -500 Descending New York TRACON
Sat 12:51:16 PM 41.1167 -74.1833 201° Southwest 140 161 3,100 -276 Descending New York TRACON
Sat 12:53:00 PM 41.0606 -74.2244 288° West  Level Estimated
Sat 12:54:15 PM 41.0167 -74.2000 288° West 139 160 2,500  Level New York TRACON
Sat 12:55:16 PM 40.9833 -74.2333 217° Southwest 138 159 2,100 -198 Descending New York TRACON
Sat 12:56:16 PM 40.9500 -74.2667 217° Southwest 126 145 2,100 -140 Level New York TRACON
Sat 12:58:00 PM 40.8987 -74.3173 217° Southwest  Level Estimated
Sat 01:00:16 PM 40.8500 -74.3667 217° Southwest 124 143 1,400  Level New York TRACON
Sat 01:02:00 PM 40.7993 -74.4149 163° South  Level Estimated
Sat 01:05:00 PM 40.7993 -74.4149 217° Southwest  Level Estimated
Sat 01:09:00 PM 40.7993 -74.4149 163° South  Level Estimated
Sat 01:10:00 PM 40.7993 -74.4149 163° South  Level Estimated
Sat 01:11:00 PM 40.7993 -74.4149 163° South  Level Estimated

Login

Don't have an account? Register now (free) for customized features, flight alerts, and more!